sensor_id;sensor_type;location;lat;lon;timestamp;pressure;altitude;pressure_sealevel;temperature;humidity
77869;BME280;67231;59.144;37.934;2023-05-13T00:00:28;100587.91;;;11.53;46.55
77869;BME280;67231;59.144;37.934;2023-05-13T00:02:54;100587.50;;;11.48;47.01
77869;BME280;67231;59.144;37.934;2023-05-13T00:05:20;100592.28;;;11.44;46.75
77869;BME280;67231;59.144;37.934;2023-05-13T00:07:47;100591.56;;;11.42;46.03
77869;BME280;67231;59.144;37.934;2023-05-13T00:10:13;100586.38;;;11.41;46.98
77869;BME280;67231;59.144;37.934;2023-05-13T00:12:41;100586.53;;;11.39;46.45
77869;BME280;67231;59.144;37.934;2023-05-13T00:15:09;100585.97;;;11.36;46.76
77869;BME280;67231;59.144;37.934;2023-05-13T00:17:35;100589.59;;;11.35;47.19
77869;BME280;67231;59.144;37.934;2023-05-13T00:20:02;100590.88;;;11.30;47.41
77869;BME280;67231;59.144;37.934;2023-05-13T00:22:31;100587.84;;;11.25;46.41
77869;BME280;67231;59.144;37.934;2023-05-13T00:24:57;100587.56;;;11.19;46.77
77869;BME280;67231;59.144;37.934;2023-05-13T00:27:24;100583.38;;;11.16;47.56
77869;BME280;67231;59.144;37.934;2023-05-13T00:29:50;100588.97;;;11.13;47.31
77869;BME280;67231;59.144;37.934;2023-05-13T00:32:17;100579.59;;;11.09;47.42
77869;BME280;67231;59.144;37.934;2023-05-13T00:34:44;100587.41;;;11.10;47.69
77869;BME280;67231;59.144;37.934;2023-05-13T00:37:10;100584.91;;;11.09;47.78
77869;BME280;67231;59.144;37.934;2023-05-13T00:39:37;100589.66;;;11.05;47.58
77869;BME280;67231;59.144;37.934;2023-05-13T00:42:03;100594.13;;;11.05;47.21
77869;BME280;67231;59.144;37.934;2023-05-13T00:44:31;100585.47;;;11.03;47.32
77869;BME280;67231;59.144;37.934;2023-05-13T00:46:58;100592.72;;;11.01;47.86
77869;BME280;67231;59.144;37.934;2023-05-13T00:49:24;100595.53;;;10.99;47.15
77869;BME280;67231;59.144;37.934;2023-05-13T00:51:51;100588.69;;;10.97;47.61
77869;BME280;67231;59.144;37.934;2023-05-13T00:54:20;100591.50;;;10.95;47.33
77869;BME280;67231;59.144;37.934;2023-05-13T00:56:47;100596.25;;;10.91;48.18
77869;BME280;67231;59.144;37.934;2023-05-13T00:59:13;100596.53;;;10.88;47.95
77869;BME280;67231;59.144;37.934;2023-05-13T01:09:51;100588.84;;;10.85;47.77
77869;BME280;67231;59.144;37.934;2023-05-13T01:12:31;100598.47;;;10.86;47.97
77869;BME280;67231;59.144;37.934;2023-05-13T01:15:07;100597.50;;;10.87;48.16
77869;BME280;67231;59.144;37.934;2023-05-13T01:17:48;100599.88;;;10.90;47.79
77869;BME280;67231;59.144;37.934;2023-05-13T01:20:20;100604.06;;;10.93;48.58
77869;BME280;67231;59.144;37.934;2023-05-13T01:22:47;100604.63;;;10.97;48.22
77869;BME280;67231;59.144;37.934;2023-05-13T01:25:14;100607.97;;;10.99;48.48
77869;BME280;67231;59.144;37.934;2023-05-13T01:27:41;100608.53;;;11.02;48.23
77869;BME280;67231;59.144;37.934;2023-05-13T01:30:09;100606.41;;;11.06;48.50
77869;BME280;67231;59.144;37.934;2023-05-13T01:32:37;100606.72;;;11.13;48.06
77869;BME280;67231;59.144;37.934;2023-05-13T01:35:04;100606.31;;;11.17;47.44
77869;BME280;67231;59.144;37.934;2023-05-13T01:37:36;100607.41;;;11.24;47.57
77869;BME280;67231;59.144;37.934;2023-05-13T01:40:04;100615.50;;;11.33;48.13
77869;BME280;67231;59.144;37.934;2023-05-13T01:42:32;100607.91;;;11.38;47.27
77869;BME280;67231;59.144;37.934;2023-05-13T01:44:59;100604.00;;;11.42;47.29
77869;BME280;67231;59.144;37.934;2023-05-13T01:47:26;100610.13;;;11.52;47.00
77869;BME280;67231;59.144;37.934;2023-05-13T01:49:53;100602.28;;;11.60;47.51
77869;BME280;67231;59.144;37.934;2023-05-13T01:52:20;100599.03;;;11.66;46.70
77869;BME280;67231;59.144;37.934;2023-05-13T01:54:46;100605.31;;;11.75;46.96
77869;BME280;67231;59.144;37.934;2023-05-13T01:57:14;100624.19;;;11.82;46.33
77869;BME280;67231;59.144;37.934;2023-05-13T01:59:40;100617.28;;;11.89;47.53
77869;BME280;67231;59.144;37.934;2023-05-13T02:02:07;100632.66;;;12.05;46.22
77869;BME280;67231;59.144;37.934;2023-05-13T02:04:33;100627.09;;;13.08;44.87
77869;BME280;67231;59.144;37.934;2023-05-13T02:06:59;100620.81;;;14.65;42.14
77869;BME280;67231;59.144;37.934;2023-05-13T02:09:29;100624.94;;;15.82;39.86
77869;BME280;67231;59.144;37.934;2023-05-13T02:11:57;100633.13;;;16.68;38.65
77869;BME280;67231;59.144;37.934;2023-05-13T02:14:23;100635.69;;;17.31;37.88
77869;BME280;67231;59.144;37.934;2023-05-13T02:16:50;100637.91;;;17.80;36.59
77869;BME280;67231;59.144;37.934;2023-05-13T02:19:17;100642.75;;;18.00;36.34
77869;BME280;67231;59.144;37.934;2023-05-13T02:21:44;100643.38;;;17.34;36.73
77869;BME280;67231;59.144;37.934;2023-05-13T02:24:11;100657.16;;;16.14;38.82
77869;BME280;67231;59.144;37.934;2023-05-13T02:26:39;100653.59;;;15.16;40.52
77869;BME280;67231;59.144;37.934;2023-05-13T02:29:07;100659.78;;;14.49;41.90
77869;BME280;67231;59.144;37.934;2023-05-13T02:31:34;100662.16;;;14.10;42.60
77869;BME280;67231;59.144;37.934;2023-05-13T02:34:02;100656.19;;;13.90;43.49
77869;BME280;67231;59.144;37.934;2023-05-13T02:36:29;100663.00;;;13.84;43.69
77869;BME280;67231;59.144;37.934;2023-05-13T02:38:56;100659.81;;;13.80;43.73
77869;BME280;67231;59.144;37.934;2023-05-13T02:41:22;100661.13;;;13.76;43.45
77869;BME280;67231;59.144;37.934;2023-05-13T02:43:50;100657.78;;;13.74;43.74
77869;BME280;67231;59.144;37.934;2023-05-13T02:46:17;100651.69;;;13.64;43.99
77869;BME280;67231;59.144;37.934;2023-05-13T02:48:44;100648.97;;;13.56;44.25
77869;BME280;67231;59.144;37.934;2023-05-13T02:51:11;100650.66;;;13.57;44.38
77869;BME280;67231;59.144;37.934;2023-05-13T02:53:37;100652.88;;;13.61;44.13
77869;BME280;67231;59.144;37.934;2023-05-13T02:56:06;100645.69;;;13.62;44.19
77869;BME280;67231;59.144;37.934;2023-05-13T02:58:34;100659.50;;;13.57;44.34
77869;BME280;67231;59.144;37.934;2023-05-13T03:01:02;100652.56;;;13.46;44.62
77869;BME280;67231;59.144;37.934;2023-05-13T03:03:28;100655.25;;;13.46;44.33
77869;BME280;67231;59.144;37.934;2023-05-13T03:05:55;100664.25;;;13.45;44.79
77869;BME280;67231;59.144;37.934;2023-05-13T03:08:21;100662.56;;;13.44;44.68
77869;BME280;67231;59.144;37.934;2023-05-13T03:10:47;100663.53;;;13.43;44.82
77869;BME280;67231;59.144;37.934;2023-05-13T03:13:14;100661.22;;;13.40;45.28
77869;BME280;67231;59.144;37.934;2023-05-13T03:15:42;100661.88;;;13.42;44.80
77869;BME280;67231;59.144;37.934;2023-05-13T03:18:08;100664.56;;;13.42;45.22
77869;BME280;67231;59.144;37.934;2023-05-13T03:20:35;100666.84;;;13.37;45.24
77869;BME280;67231;59.144;37.934;2023-05-13T03:23:03;100657.84;;;13.38;45.02
77869;BME280;67231;59.144;37.934;2023-05-13T03:25:30;100670.50;;;13.36;45.20
77869;BME280;67231;59.144;37.934;2023-05-13T03:27:58;100666.16;;;13.35;45.53
77869;BME280;67231;59.144;37.934;2023-05-13T03:30:28;100662.09;;;13.31;45.34
77869;BME280;67231;59.144;37.934;2023-05-13T03:33:08;100663.19;;;13.38;45.56
77869;BME280;67231;59.144;37.934;2023-05-13T03:35:35;100668.97;;;13.52;45.50
77869;BME280;67231;59.144;37.934;2023-05-13T03:38:01;100667.69;;;13.64;45.24
77869;BME280;67231;59.144;37.934;2023-05-13T03:40:28;100676.28;;;13.76;45.31
77869;BME280;67231;59.144;37.934;2023-05-13T03:42:55;100664.34;;;13.88;44.94
77869;BME280;67231;59.144;37.934;2023-05-13T03:45:23;100672.31;;;14.06;44.80
77869;BME280;67231;59.144;37.934;2023-05-13T03:47:52;100679.72;;;14.20;44.83
77869;BME280;67231;59.144;37.934;2023-05-13T03:50:20;100676.59;;;14.33;44.98
77869;BME280;67231;59.144;37.934;2023-05-13T03:52:46;100677.63;;;14.41;44.66
77869;BME280;67231;59.144;37.934;2023-05-13T03:55:13;100679.66;;;14.47;44.46
77869;BME280;67231;59.144;37.934;2023-05-13T03:57:43;100680.47;;;14.47;44.61
77869;BME280;67231;59.144;37.934;2023-05-13T04:00:11;100693.16;;;14.45;44.95
77869;BME280;67231;59.144;37.934;2023-05-13T04:02:43;100694.13;;;14.36;44.94
77869;BME280;67231;59.144;37.934;2023-05-13T04:05:11;100693.47;;;14.42;44.88
77869;BME280;67231;59.144;37.934;2023-05-13T04:07:38;100694.88;;;14.54;45.01
77869;BME280;67231;59.144;37.934;2023-05-13T04:10:06;100697.06;;;14.59;45.06
77869;BME280;67231;59.144;37.934;2023-05-13T04:12:33;100693.59;;;14.67;45.07
77869;BME280;67231;59.144;37.934;2023-05-13T04:15:00;100690.59;;;14.70;45.23
77869;BME280;67231;59.144;37.934;2023-05-13T04:17:27;100691.13;;;14.73;45.42
77869;BME280;67231;59.144;37.934;2023-05-13T04:19:54;100688.25;;;14.75;45.49
77869;BME280;67231;59.144;37.934;2023-05-13T04:22:23;100696.84;;;14.87;45.33
77869;BME280;67231;59.144;37.934;2023-05-13T04:24:49;100694.84;;;15.05;45.14
77869;BME280;67231;59.144;37.934;2023-05-13T04:27:24;100687.03;;;15.20;44.98
77869;BME280;67231;59.144;37.934;2023-05-13T04:29:57;100694.72;;;15.32;44.62
77869;BME280;67231;59.144;37.934;2023-05-13T04:32:24;100702.09;;;15.46;44.26
77869;BME280;67231;59.144;37.934;2023-05-13T04:34:54;100686.16;;;15.69;44.38
77869;BME280;67231;59.144;37.934;2023-05-13T04:37:22;100690.94;;;16.23;43.72
77869;BME280;67231;59.144;37.934;2023-05-13T04:39:52;100694.63;;;16.93;42.55
77869;BME280;67231;59.144;37.934;2023-05-13T04:42:21;100691.44;;;17.97;40.85
77869;BME280;67231;59.144;37.934;2023-05-13T04:44:48;100689.22;;;18.45;40.11
77869;BME280;67231;59.144;37.934;2023-05-13T04:47:14;100697.44;;;18.59;40.18
77869;BME280;67231;59.144;37.934;2023-05-13T04:49:41;100694.06;;;18.71;39.71
77869;BME280;67231;59.144;37.934;2023-05-13T04:52:07;100705.06;;;19.28;39.05
77869;BME280;67231;59.144;37.934;2023-05-13T04:54:34;100696.50;;;20.79;37.59
77869;BME280;67231;59.144;37.934;2023-05-13T04:57:02;100703.09;;;20.70;37.19
77869;BME280;67231;59.144;37.934;2023-05-13T04:59:30;100710.53;;;21.76;35.83
77869;BME280;67231;59.144;37.934;2023-05-13T05:01:57;100716.25;;;23.56;33.63
77869;BME280;67231;59.144;37.934;2023-05-13T05:04:24;100723.91;;;22.63;34.17
77869;BME280;67231;59.144;37.934;2023-05-13T05:06:51;100727.34;;;21.38;35.32
77869;BME280;67231;59.144;37.934;2023-05-13T05:09:17;100733.78;;;20.27;36.12
77869;BME280;67231;59.144;37.934;2023-05-13T05:11:46;100727.06;;;19.60;37.03
77869;BME280;67231;59.144;37.934;2023-05-13T05:14:16;100724.16;;;19.61;37.09
77869;BME280;67231;59.144;37.934;2023-05-13T05:16:42;100718.53;;;19.56;36.58
77869;BME280;67231;59.144;37.934;2023-05-13T05:19:18;100729.00;;;19.23;37.32
77869;BME280;67231;59.144;37.934;2023-05-13T05:21:59;100729.88;;;18.57;38.13
77869;BME280;67231;59.144;37.934;2023-05-13T05:24:28;100730.28;;;18.24;38.55
77869;BME280;67231;59.144;37.934;2023-05-13T05:26:55;100739.41;;;18.00;39.23
77869;BME280;67231;59.144;37.934;2023-05-13T05:29:22;100736.81;;;17.92;39.40
77869;BME280;67231;59.144;37.934;2023-05-13T05:31:48;100731.63;;;17.90;39.60
77869;BME280;67231;59.144;37.934;2023-05-13T05:34:15;100745.16;;;17.97;40.01
77869;BME280;67231;59.144;37.934;2023-05-13T05:36:42;100747.25;;;17.87;39.64
77869;BME280;67231;59.144;37.934;2023-05-13T05:39:09;100741.38;;;17.83;40.06
77869;BME280;67231;59.144;37.934;2023-05-13T05:41:36;100752.50;;;18.33;39.37
77869;BME280;67231;59.144;37.934;2023-05-13T05:44:03;100753.25;;;19.94;37.05
77869;BME280;67231;59.144;37.934;2023-05-13T05:46:29;100747.56;;;20.81;36.51
77869;BME280;67231;59.144;37.934;2023-05-13T05:48:57;100745.19;;;21.33;35.80
77869;BME280;67231;59.144;37.934;2023-05-13T05:51:26;100747.25;;;21.24;35.35
77869;BME280;67231;59.144;37.934;2023-05-13T05:53:52;100745.19;;;21.33;35.15
77869;BME280;67231;59.144;37.934;2023-05-13T05:56:19;100744.38;;;21.25;35.11
77869;BME280;67231;59.144;37.934;2023-05-13T05:58:46;100752.09;;;22.02;34.75
77869;BME280;67231;59.144;37.934;2023-05-13T06:01:12;100749.75;;;25.04;31.47
77869;BME280;67231;59.144;37.934;2023-05-13T06:03:39;100754.06;;;26.89;29.20
77869;BME280;67231;59.144;37.934;2023-05-13T06:06:05;100764.00;;;26.96;29.05
77869;BME280;67231;59.144;37.934;2023-05-13T06:08:33;100756.09;;;26.30;29.35
77869;BME280;67231;59.144;37.934;2023-05-13T06:11:00;100761.06;;;26.85;28.91
77869;BME280;67231;59.144;37.934;2023-05-13T06:13:26;100757.97;;;26.17;29.26
77869;BME280;67231;59.144;37.934;2023-05-13T06:15:54;100767.13;;;25.45;29.68
77869;BME280;67231;59.144;37.934;2023-05-13T06:18:20;100752.84;;;25.20;29.95
77869;BME280;67231;59.144;37.934;2023-05-13T06:20:47;100750.38;;;27.41;28.13
77869;BME280;67231;59.144;37.934;2023-05-13T06:23:14;100759.59;;;29.14;26.76
77869;BME280;67231;59.144;37.934;2023-05-13T06:25:40;100766.06;;;30.37;25.22
77869;BME280;67231;59.144;37.934;2023-05-13T06:28:09;100774.84;;;31.13;23.97
77869;BME280;67231;59.144;37.934;2023-05-13T06:30:35;100768.03;;;31.62;23.75
77869;BME280;67231;59.144;37.934;2023-05-13T06:33:03;100777.91;;;32.09;23.19
77869;BME280;67231;59.144;37.934;2023-05-13T06:35:30;100771.78;;;32.33;23.09
77869;BME280;67231;59.144;37.934;2023-05-13T06:37:57;100775.91;;;32.95;22.63
77869;BME280;67231;59.144;37.934;2023-05-13T06:40:24;100790.94;;;33.18;22.19
77869;BME280;67231;59.144;37.934;2023-05-13T06:42:51;100777.13;;;33.63;22.49
77869;BME280;67231;59.144;37.934;2023-05-13T06:45:26;100777.59;;;34.00;21.41
77869;BME280;67231;59.144;37.934;2023-05-13T06:47:53;100772.66;;;33.67;21.93
77869;BME280;67231;59.144;37.934;2023-05-13T06:50:19;100784.44;;;33.78;21.67
77869;BME280;67231;59.144;37.934;2023-05-13T06:52:46;100785.78;;;34.10;21.40
77869;BME280;67231;59.144;37.934;2023-05-13T06:55:13;100781.59;;;34.12;20.65
77869;BME280;67231;59.144;37.934;2023-05-13T06:57:41;100776.25;;;33.73;21.59
77869;BME280;67231;59.144;37.934;2023-05-13T07:00:12;100781.78;;;33.63;21.45
77869;BME280;67231;59.144;37.934;2023-05-13T07:02:39;100782.56;;;33.68;21.82
77869;BME280;67231;59.144;37.934;2023-05-13T07:05:08;100786.44;;;33.97;21.25
77869;BME280;67231;59.144;37.934;2023-05-13T07:07:35;100792.41;;;33.80;20.85
77869;BME280;67231;59.144;37.934;2023-05-13T07:10:01;100787.88;;;33.94;20.53
77869;BME280;67231;59.144;37.934;2023-05-13T07:12:30;100785.84;;;33.75;20.76
77869;BME280;67231;59.144;37.934;2023-05-13T07:14:57;100798.31;;;33.97;20.82
77869;BME280;67231;59.144;37.934;2023-05-13T07:17:24;100797.09;;;33.79;21.37
77869;BME280;67231;59.144;37.934;2023-05-13T07:19:50;100800.72;;;33.74;21.64
77869;BME280;67231;59.144;37.934;2023-05-13T07:22:17;100810.78;;;33.50;20.88
77869;BME280;67231;59.144;37.934;2023-05-13T07:24:43;100798.38;;;33.13;21.60
77869;BME280;67231;59.144;37.934;2023-05-13T07:27:10;100795.44;;;32.99;21.93
77869;BME280;67231;59.144;37.934;2023-05-13T07:29:36;100798.69;;;33.51;21.27
77869;BME280;67231;59.144;37.934;2023-05-13T07:32:04;100796.50;;;33.48;20.68
77869;BME280;67231;59.144;37.934;2023-05-13T07:34:31;100814.66;;;33.49;20.40
77869;BME280;67231;59.144;37.934;2023-05-13T07:36:57;100800.72;;;32.85;21.35
77869;BME280;67231;59.144;37.934;2023-05-13T07:39:24;100796.13;;;32.70;21.52
77869;BME280;67231;59.144;37.934;2023-05-13T07:41:51;100785.47;;;33.13;21.01
77869;BME280;67231;59.144;37.934;2023-05-13T07:44:17;100788.88;;;33.69;20.98
77869;BME280;67231;59.144;37.934;2023-05-13T07:46:44;100794.59;;;33.43;20.77
77869;BME280;67231;59.144;37.934;2023-05-13T07:49:11;100789.72;;;30.64;22.89
77869;BME280;67231;59.144;37.934;2023-05-13T07:51:37;100790.34;;;29.26;24.45
77869;BME280;67231;59.144;37.934;2023-05-13T07:54:03;100796.22;;;29.13;23.76
77869;BME280;67231;59.144;37.934;2023-05-13T07:56:30;100794.34;;;28.91;24.12
77869;BME280;67231;59.144;37.934;2023-05-13T07:58:56;100803.97;;;29.21;23.64
77869;BME280;67231;59.144;37.934;2023-05-13T08:01:23;100808.25;;;29.39;23.76
77869;BME280;67231;59.144;37.934;2023-05-13T08:03:49;100806.06;;;30.38;23.05
77869;BME280;67231;59.144;37.934;2023-05-13T08:06:16;100807.47;;;30.46;23.15
77869;BME280;67231;59.144;37.934;2023-05-13T08:08:42;100820.63;;;28.97;24.20
77869;BME280;67231;59.144;37.934;2023-05-13T08:11:08;100826.63;;;27.82;24.99
77869;BME280;67231;59.144;37.934;2023-05-13T08:13:35;100819.38;;;28.05;25.22
77869;BME280;67231;59.144;37.934;2023-05-13T08:16:01;100815.22;;;27.85;25.69
77869;BME280;67231;59.144;37.934;2023-05-13T08:18:28;100814.47;;;28.46;25.13
77869;BME280;67231;59.144;37.934;2023-05-13T08:20:55;100825.66;;;29.05;24.36
77869;BME280;67231;59.144;37.934;2023-05-13T08:23:21;100821.53;;;27.57;25.47
77869;BME280;67231;59.144;37.934;2023-05-13T08:25:48;100832.09;;;27.24;25.46
77869;BME280;67231;59.144;37.934;2023-05-13T08:28:15;100831.34;;;27.41;25.46
77869;BME280;67231;59.144;37.934;2023-05-13T08:30:42;100822.78;;;27.49;25.01
77869;BME280;67231;59.144;37.934;2023-05-13T08:33:10;100821.00;;;27.14;25.82
77869;BME280;67231;59.144;37.934;2023-05-13T08:35:37;100824.47;;;26.22;26.00
77869;BME280;67231;59.144;37.934;2023-05-13T08:38:03;100822.78;;;25.43;27.93
77869;BME280;67231;59.144;37.934;2023-05-13T08:40:31;100817.50;;;24.99;27.82
77869;BME280;67231;59.144;37.934;2023-05-13T08:43:00;100809.19;;;24.57;28.13
77869;BME280;67231;59.144;37.934;2023-05-13T08:45:32;100834.22;;;23.90;28.92
77869;BME280;67231;59.144;37.934;2023-05-13T08:48:02;100809.66;;;23.15;30.08
77869;BME280;67231;59.144;37.934;2023-05-13T08:50:30;100814.88;;;23.03;30.45
77869;BME280;67231;59.144;37.934;2023-05-13T08:52:58;100815.22;;;23.26;30.72
77869;BME280;67231;59.144;37.934;2023-05-13T08:55:27;100812.28;;;23.28;30.54
77869;BME280;67231;59.144;37.934;2023-05-13T08:57:54;100810.28;;;23.17;30.91
77869;BME280;67231;59.144;37.934;2023-05-13T09:00:20;100815.94;;;23.02;31.45
77869;BME280;67231;59.144;37.934;2023-05-13T09:02:48;100803.44;;;23.07;31.82
77869;BME280;67231;59.144;37.934;2023-05-13T09:05:16;100812.69;;;23.32;31.89
77869;BME280;67231;59.144;37.934;2023-05-13T09:07:43;100823.69;;;23.37;31.22
77869;BME280;67231;59.144;37.934;2023-05-13T09:10:09;100810.81;;;22.80;31.37
77869;BME280;67231;59.144;37.934;2023-05-13T09:12:54;100815.91;;;22.36;32.09
77869;BME280;67231;59.144;37.934;2023-05-13T09:15:23;100807.81;;;22.36;31.72
77869;BME280;67231;59.144;37.934;2023-05-13T09:18:01;100798.84;;;22.43;32.92
77869;BME280;67231;59.144;37.934;2023-05-13T09:20:28;100803.31;;;22.76;32.38
77869;BME280;67231;59.144;37.934;2023-05-13T09:23:09;100804.38;;;23.26;32.33
77869;BME280;67231;59.144;37.934;2023-05-13T09:25:36;100818.66;;;23.02;31.80
77869;BME280;67231;59.144;37.934;2023-05-13T09:28:05;100815.22;;;22.68;31.72
77869;BME280;67231;59.144;37.934;2023-05-13T09:30:39;100819.13;;;22.79;32.06
77869;BME280;67231;59.144;37.934;2023-05-13T09:33:11;100818.81;;;22.48;32.26
77869;BME280;67231;59.144;37.934;2023-05-13T09:36:04;100803.03;;;22.18;32.21
77869;BME280;67231;59.144;37.934;2023-05-13T09:38:32;100818.59;;;22.16;32.59
77869;BME280;67231;59.144;37.934;2023-05-13T09:41:02;100822.16;;;22.24;33.20
77869;BME280;67231;59.144;37.934;2023-05-13T09:43:32;100834.59;;;22.25;32.61
77869;BME280;67231;59.144;37.934;2023-05-13T09:46:05;100835.25;;;22.00;33.12
77869;BME280;67231;59.144;37.934;2023-05-13T09:48:33;100847.06;;;21.66;33.19
77869;BME280;67231;59.144;37.934;2023-05-13T09:51:01;100831.97;;;21.23;33.78
77869;BME280;67231;59.144;37.934;2023-05-13T09:53:28;100824.38;;;20.91;34.25
77869;BME280;67231;59.144;37.934;2023-05-13T09:55:55;100825.63;;;20.61;34.30
77869;BME280;67231;59.144;37.934;2023-05-13T09:58:23;100824.19;;;20.58;34.45
77869;BME280;67231;59.144;37.934;2023-05-13T10:00:51;100830.38;;;20.87;33.85
77869;BME280;67231;59.144;37.934;2023-05-13T10:03:17;100835.06;;;21.13;33.44
77869;BME280;67231;59.144;37.934;2023-05-13T10:05:44;100830.56;;;21.40;33.34
77869;BME280;67231;59.144;37.934;2023-05-13T10:08:13;100826.91;;;21.55;33.10
77869;BME280;67231;59.144;37.934;2023-05-13T10:10:41;100841.41;;;21.54;33.21
77869;BME280;67231;59.144;37.934;2023-05-13T10:13:15;100832.28;;;21.55;32.60
77869;BME280;67231;59.144;37.934;2023-05-13T10:15:52;100837.28;;;21.51;32.95
77869;BME280;67231;59.144;37.934;2023-05-13T10:18:19;100852.75;;;21.29;33.33
77869;BME280;67231;59.144;37.934;2023-05-13T10:20:50;100837.34;;;21.16;33.87
77869;BME280;67231;59.144;37.934;2023-05-13T10:23:21;100847.91;;;21.11;34.17
77869;BME280;67231;59.144;37.934;2023-05-13T10:25:53;100853.53;;;21.09;33.88
77869;BME280;67231;59.144;37.934;2023-05-13T10:28:20;100855.34;;;21.02;34.22
77869;BME280;67231;59.144;37.934;2023-05-13T10:30:50;100856.78;;;20.98;34.36
77869;BME280;67231;59.144;37.934;2023-05-13T10:33:17;100851.28;;;20.78;34.18
77869;BME280;67231;59.144;37.934;2023-05-13T10:36:03;100871.00;;;20.79;34.87
77869;BME280;67231;59.144;37.934;2023-05-13T10:44:18;100866.81;;;20.48;35.63
77869;BME280;67231;59.144;37.934;2023-05-13T10:46:48;100867.41;;;20.43;35.59
77869;BME280;67231;59.144;37.934;2023-05-13T10:49:14;100874.13;;;20.54;36.07
77869;BME280;67231;59.144;37.934;2023-05-13T10:51:47;100871.34;;;20.69;35.70
77869;BME280;67231;59.144;37.934;2023-05-13T10:54:19;100870.66;;;20.88;35.95
77869;BME280;67231;59.144;37.934;2023-05-13T10:56:55;100862.97;;;20.92;36.14
77869;BME280;67231;59.144;37.934;2023-05-13T10:59:22;100876.69;;;20.97;35.96
77869;BME280;67231;59.144;37.934;2023-05-13T11:01:48;100873.09;;;20.83;35.57
77869;BME280;67231;59.144;37.934;2023-05-13T11:04:16;100879.69;;;20.74;35.50
77869;BME280;67231;59.144;37.934;2023-05-13T11:06:44;100883.25;;;20.81;35.53
77869;BME280;67231;59.144;37.934;2023-05-13T11:11:55;100885.75;;;20.05;36.49
77869;BME280;67231;59.144;37.934;2023-05-13T11:14:26;100884.38;;;19.72;36.36
77869;BME280;67231;59.144;37.934;2023-05-13T11:22:18;100889.47;;;19.82;36.26
77869;BME280;67231;59.144;37.934;2023-05-13T11:25:11;100884.56;;;19.86;36.82
77869;BME280;67231;59.144;37.934;2023-05-13T11:27:39;100876.03;;;20.04;36.96
77869;BME280;67231;59.144;37.934;2023-05-13T11:30:07;100871.38;;;20.19;36.74
77869;BME280;67231;59.144;37.934;2023-05-13T11:32:53;100887.53;;;20.19;36.67
77869;BME280;67231;59.144;37.934;2023-05-13T11:35:23;100884.06;;;20.25;36.41
77869;BME280;67231;59.144;37.934;2023-05-13T11:37:50;100878.06;;;20.01;36.49
77869;BME280;67231;59.144;37.934;2023-05-13T11:40:28;100885.25;;;19.58;36.81
77869;BME280;67231;59.144;37.934;2023-05-13T11:42:54;100885.69;;;19.40;37.14
77869;BME280;67231;59.144;37.934;2023-05-13T11:45:22;100882.75;;;19.56;37.36
77869;BME280;67231;59.144;37.934;2023-05-13T11:47:49;100905.09;;;19.72;36.81
77869;BME280;67231;59.144;37.934;2023-05-13T11:50:20;100904.97;;;19.58;36.43
77869;BME280;67231;59.144;37.934;2023-05-13T11:52:51;100895.31;;;19.49;36.90
77869;BME280;67231;59.144;37.934;2023-05-13T11:55:30;100896.97;;;19.50;36.35
77869;BME280;67231;59.144;37.934;2023-05-13T11:57:58;100892.88;;;19.54;36.80
77869;BME280;67231;59.144;37.934;2023-05-13T12:00:26;100890.25;;;19.61;36.75
77869;BME280;67231;59.144;37.934;2023-05-13T12:02:53;100893.34;;;19.58;36.49
77869;BME280;67231;59.144;37.934;2023-05-13T12:05:20;100907.22;;;19.40;35.94
77869;BME280;67231;59.144;37.934;2023-05-13T12:07:46;100898.06;;;19.19;35.71
77869;BME280;67231;59.144;37.934;2023-05-13T12:10:13;100901.84;;;19.10;36.23
77869;BME280;67231;59.144;37.934;2023-05-13T12:12:42;100910.03;;;19.02;36.26
77869;BME280;67231;59.144;37.934;2023-05-13T12:15:12;100904.25;;;18.75;36.30
77869;BME280;67231;59.144;37.934;2023-05-13T12:17:38;100911.34;;;18.53;36.58
77869;BME280;67231;59.144;37.934;2023-05-13T12:20:13;100905.53;;;18.64;36.60
77869;BME280;67231;59.144;37.934;2023-05-13T12:28:15;100896.19;;;19.05;35.81
77869;BME280;67231;59.144;37.934;2023-05-13T12:35:51;100914.75;;;19.29;35.61
77869;BME280;67231;59.144;37.934;2023-05-13T12:38:20;100890.06;;;19.26;35.77
77869;BME280;67231;59.144;37.934;2023-05-13T12:40:48;100909.06;;;19.24;35.98
77869;BME280;67231;59.144;37.934;2023-05-13T12:43:17;100911.41;;;19.27;35.82
77869;BME280;67231;59.144;37.934;2023-05-13T12:45:46;100914.75;;;19.15;36.10
77869;BME280;67231;59.144;37.934;2023-05-13T12:48:12;100914.59;;;18.86;36.10
77869;BME280;67231;59.144;37.934;2023-05-13T12:50:39;100916.56;;;18.69;36.83
77869;BME280;67231;59.144;37.934;2023-05-13T12:53:05;100911.09;;;18.63;36.34
77869;BME280;67231;59.144;37.934;2023-05-13T12:55:32;100902.66;;;18.66;36.88
77869;BME280;67231;59.144;37.934;2023-05-13T12:58:00;100908.97;;;18.73;36.79
77869;BME280;67231;59.144;37.934;2023-05-13T13:00:27;100907.59;;;18.77;36.41
77869;BME280;67231;59.144;37.934;2023-05-13T13:02:54;100901.84;;;18.80;36.08
77869;BME280;67231;59.144;37.934;2023-05-13T13:05:22;100905.34;;;18.81;35.76
77869;BME280;67231;59.144;37.934;2023-05-13T13:07:49;100915.41;;;18.87;36.32
77869;BME280;67231;59.144;37.934;2023-05-13T13:10:16;100912.91;;;18.85;36.12
77869;BME280;67231;59.144;37.934;2023-05-13T13:12:42;100915.66;;;18.77;36.15
77869;BME280;67231;59.144;37.934;2023-05-13T13:15:09;100910.00;;;18.72;36.19
77869;BME280;67231;59.144;37.934;2023-05-13T13:17:36;100915.75;;;18.69;36.30